Latest Weather Observations for Beaudesert AWS

IDQ60901

Issued at 9:21 pm EST Saturday 25 February 2017 (issued every 10 minutes, with the page automatically refreshed every 10 minutes)

About weather observations | Map of Brisbane area stations | Latest observations for Brisbane area | Other Formats
Station Details ID: 040983 Name: BEAUDESERT DRUMLEY STREET Lat: -27.97 Lon: 152.99 Height: 47.81 m
Data from the previous 72 hours. | See also: Recent months at Beaudesert AWS
Date/Time
EST
Temp
°C
App
Temp
°C
Dew
Point
°C
Rel
Hum
%
Delta-T
°C
Wind Press
QNH
hPa
Press
MSL
hPa
Rain since
9am
mm
Dir  Spd
km/h
Gust
km/h
Spd
kts
Gust
kts
25/09:00pm 23.2 23.6 15.3 61 4.7 SE 7 13 4 7 1016.4 1016.2 0.0
25/08:30pm 23.8 24.0 15.8 61 4.8 ESE 9 15 5 8 1016.2 1016.0 0.0
25/08:00pm 24.2 25.1 16.7 63 4.6 ESE 7 15 4 8 1015.7 1015.5 0.0
25/07:30pm 24.9 25.4 16.6 60 5.1 ESE 9 17 5 9 1015.2 1015.0 0.0
25/07:00pm 25.6 26.5 16.5 57 5.6 ESE 7 13 4 7 1014.8 1014.6 0.0
25/06:30pm 26.6 26.3 16.5 54 6.3 ESE 13 20 7 11 1014.2 1014.0 0.0
25/06:00pm 27.8 26.7 16.4 50 7.1 ESE 17 26 9 14 1013.5 1013.3 0.0
25/05:30pm 29.0 28.6 16.2 46 8.0 ESE 13 22 7 12 1013.0 1012.8 0.0
25/05:00pm 29.2 28.9 16.4 46 8.0 SE 13 24 7 13 1012.7 1012.4 0.0
25/04:30pm 31.0 31.9 15.0 38 9.8 S 4 13 2 7 1012.6 1012.3 0.0
25/04:00pm 32.1 31.8 14.3 34 10.9 S 9 20 5 11 1012.6 1012.3 0.0
25/03:30pm 31.7 30.5 13.9 34 10.8 SSE 13 24 7 13 1012.5 1012.2 0.0
25/03:00pm 32.3 33.1 14.9 35 10.7 ESE 4 9 2 5 1012.7 1012.4 0.0
25/02:30pm 32.0 32.2 14.2 34 10.9 SE 6 17 3 9 1013.1 1012.9 0.0
25/02:00pm 31.7 30.9 13.9 34 10.8 ESE 11 19 6 10 1013.4 1013.2 0.0
25/01:30pm 30.9 31.2 14.5 37 10.0 S 6 13 3 7 1014.0 1013.8 0.0
25/01:00pm 30.8 30.6 13.6 35 10.3 S 7 15 4 8 1014.6 1014.4 0.0
25/12:30pm 30.7 30.6 13.9 36 10.1 SW 7 15 4 8 1014.9 1014.7 0.0
25/12:00pm 30.4 30.2 13.7 36 10.0 NNE 7 13 4 7 1015.1 1014.9 0.0
25/11:30am 30.5 30.0 13.7 35 10.1 ESE 9 19 5 10 1015.5 1015.3 0.0
25/11:00am 28.8 28.3 13.9 40 8.9 WSW 9 19 5 10 1015.8 1015.6 0.0
25/10:30am 29.2 29.4 14.6 41 8.9 S 7 17 4 9 1016.4 1016.2 0.0
25/10:00am 27.7 27.2 15.0 45 7.7 SSW 11 22 6 12 1016.9 1016.7 0.0
25/09:30am 27.1 27.6 15.1 47 7.3 S 6 11 3 6 1017.1 1016.9 0.0
25/09:00am 26.4 26.8 17.2 57 5.7 WSW 11 19 6 10 1017.3 1017.1 0.0
25/08:30am 25.0 25.6 16.7 60 5.1 SW 9 22 5 12 1017.3 1017.1 0.0
25/08:00am 23.4 26.4 18.5 74 3.1 CALM 0 2 0 1 1017.3 1017.1 0.0
25/07:30am 20.3 23.0 17.7 85 1.6 CALM 0 0 0 0 1017.4 1017.2 0.0
25/07:00am 18.1 20.5 17.1 94 0.6 CALM 0 0 0 0 1017.3 1017.1 0.0
25/06:30am 16.3 18.2 15.8 97 0.3 CALM 0 0 0 0 1017.2 1017.0 0.0
25/06:00am 14.8 16.1 14.2 96 0.3 CALM 0 0 0 0 1016.8 1016.6 0.0
25/05:30am 14.9 16.2 14.1 95 0.5 CALM 0 0 0 0 1016.7 1016.5 0.0
25/05:00am 15.7 17.3 14.9 95 0.5 CALM 0 4 0 2 1016.5 1016.3 0.0
25/04:30am 15.7 17.2 14.7 94 0.6 CALM 0 0 0 0 1016.4 1016.2 0.0
25/04:00am 16.8 18.7 15.8 94 0.6 CALM 0 0 0 0 1016.3 1016.1 0.0
25/03:30am 16.8 18.7 15.7 93 0.6 CALM 0 0 0 0 1016.0 1015.8 0.0
25/03:00am 16.9 18.4 15.6 92 0.8 SSW 2 4 1 2 1015.9 1015.7 0.0
25/02:30am 18.1 20.0 16.8 92 0.8 SE 2 2 1 1 1015.8 1015.6 0.0
25/02:00am 18.1 20.0 16.8 92 0.8 E 2 2 1 1 1016.1 1015.9 0.0
25/01:30am 17.5 19.1 16.0 91 0.9 SSW 2 4 1 2 1016.3 1016.1 0.0
25/01:00am 18.8 21.0 17.5 92 0.8 SE 2 4 1 2 1016.3 1016.1 0.0
25/12:30am 18.0 20.3 16.7 92 0.8 CALM 0 0 0 0 1016.5 1016.3 0.0
25/12:00am 17.6 19.6 16.1 91 0.9 CALM 0 0 0 0 1016.6 1016.4 0.0
 
Date/Time
EST
Temp
°C
App
Temp
°C
Dew
Point
°C
Rel
Hum
%
Delta-T
°C
Wind Press
QNH
hPa
Press
MSL
hPa
Rain since
9am
mm
Dir  Spd
km/h
Gust
km/h
Spd
kts
Gust
kts
24/11:30pm 18.3 20.6 16.8 91 0.9 CALM 0 0 0 0 1016.9 1016.7 0.0
24/11:00pm 19.0 21.2 16.6 86 1.4 CALM 0 0 0 0 1017.1 1016.9 0.0
24/10:30pm 20.3 22.7 16.9 81 2.1 CALM 0 0 0 0 1017.0 1016.8 0.0
24/10:00pm 21.1 23.0 17.7 81 2.1 ESE 4 6 2 3 1017.1 1016.9 0.0
24/09:30pm 20.4 22.3 16.6 79 2.3 E 2 4 1 2 1017.1 1016.9 0.0
24/09:00pm 20.7 22.8 16.3 76 2.6 CALM 0 0 0 0 1017.1 1016.9 0.0
24/08:30pm 22.7 24.8 17.2 71 3.4 NE 2 6 1 3 1017.1 1016.9 0.0
24/08:00pm 23.7 24.9 17.4 68 3.9 ENE 7 11 4 6 1016.9 1016.7 0.0
24/07:30pm 24.1 25.2 17.1 65 4.3 ENE 7 13 4 7 1016.6 1016.4 0.0
24/07:00pm 24.8 25.1 17.0 62 4.8 ENE 11 19 6 10 1016.4 1016.2 0.0
24/06:30pm 25.6 26.3 17.0 59 5.3 E 9 15 5 8 1016.1 1015.9 0.0
24/06:00pm 26.8 26.7 17.0 55 6.1 ENE 13 20 7 11 1015.8 1015.6 0.0
24/05:30pm 27.9 27.7 16.8 50 6.9 ENE 13 22 7 12 1015.6 1015.4 0.0
24/05:00pm 29.0 28.1 16.9 48 7.6 NE 17 24 9 13 1015.2 1015.0 0.0
24/04:30pm 29.9 29.4 17.0 45 8.1 ENE 15 24 8 13 1015.0 1014.8 0.0
24/04:00pm 30.9 30.4 16.9 43 8.8 ENE 15 24 8 13 1014.8 1014.6 0.0
24/03:30pm 31.1 30.2 15.9 40 9.5 NE 15 28 8 15 1014.8 1014.6 0.0
24/03:00pm 32.1 32.9 16.4 39 9.9 NE 7 13 4 7 1014.9 1014.7 0.0
24/02:30pm 31.7 31.3 15.2 36 10.2 NE 11 24 6 13 1015.0 1014.8 0.0
24/02:00pm 32.5 32.7 14.6 34 11.0 N 7 17 4 9 1015.3 1015.1 0.0
24/01:30pm 31.8 31.9 14.4 34 10.6 NE 7 13 4 7 1015.7 1015.5 0.0
24/01:00pm 31.9 32.4 15.0 36 10.4 W 6 11 3 6 1016.1 1015.9 0.0
24/12:30pm 30.4 30.5 14.5 38 9.7 W 7 13 4 7 1016.8 1016.6 0.0
24/12:00pm 30.1 30.4 14.6 39 9.4 S 6 11 3 6 1017.3 1017.1 0.0
24/11:30am 29.6 30.3 16.1 44 8.4 WSW 7 13 4 7 1017.7 1017.5 0.0
24/11:00am 29.7 30.1 15.4 42 8.8 E 7 17 4 9 1018.3 1018.1 0.0
24/10:30am 27.9 28.7 14.9 45 7.9 ENE 4 6 2 3 1018.6 1018.4 0.0
24/10:00am 27.9 28.9 16.8 50 6.9 SSW 7 11 4 6 1018.9 1018.7 0.0
24/09:30am 27.5 29.1 16.8 52 6.7 S 4 11 2 6 1019.2 1019.0 0.0
24/09:00am 26.6 28.0 16.5 54 6.2 S 4 13 2 7 1019.3 1019.1 -
24/08:30am 24.9 26.4 17.6 64 4.6 WSW 6 9 3 5 1019.4 1019.2 -
24/08:00am 22.8 24.2 17.9 74 3.1 SW 7 9 4 5 1019.3 1019.1 -
24/07:30am 20.6 23.1 17.2 81 2.1 CALM 0 6 0 3 1019.1 1018.9 -
24/07:00am 18.1 19.9 16.4 90 1.0 SSW 2 4 1 2 1019.0 1018.8 -
24/06:30am 16.6 18.4 15.5 93 0.6 CALM 0 2 0 1 1018.8 1018.6 -
24/06:00am 16.3 17.7 15.5 95 0.5 SSE 2 4 1 2 1018.4 1018.2 -
24/05:30am 16.4 17.9 15.6 95 0.5 SSE 2 4 1 2 1018.1 1017.9 -
24/05:00am 15.8 17.4 14.8 94 0.6 CALM 0 0 0 0 1017.8 1017.6 -
24/04:30am 15.9 17.5 14.9 94 0.6 CALM 0 2 0 1 1017.7 1017.5 -
24/04:00am 16.1 17.6 14.6 91 0.9 CALM 0 0 0 0 1017.6 1017.4 -
24/03:30am 16.9 18.6 15.2 90 1.0 CALM 0 0 0 0 1017.7 1017.5 -
24/03:00am 17.8 19.8 16.0 89 1.1 CALM 0 4 0 2 1017.7 1017.5 0.0
24/02:30am 17.7 19.7 15.9 89 1.1 CALM 0 0 0 0 1017.8 1017.6 -
24/02:00am 17.4 19.2 15.4 88 1.2 CALM 0 0 0 0 1017.8 1017.6 -
24/01:30am 18.1 20.3 16.4 90 1.0 CALM 0 6 0 3 1018.1 1017.9 -
24/01:00am 17.4 18.8 15.4 88 1.2 SSW 2 4 1 2 1018.4 1018.2 -
24/12:30am 18.3 20.0 16.3 88 1.2 E 2 4 1 2 1018.5 1018.3 -
24/12:00am 18.5 20.6 16.3 87 1.3 CALM 0 0 0 0 1018.8 1018.6 -
 
Date/Time
EST
Temp
°C
App
Temp
°C
Dew
Point
°C
Rel
Hum
%
Delta-T
°C
Wind Press
QNH
hPa
Press
MSL
hPa
Rain since
9am
mm
Dir  Spd
km/h
Gust
km/h
Spd
kts
Gust
kts
23/11:30pm 18.7 20.7 16.1 85 1.5 CALM 0 0 0 0 1019.0 1018.8 -
23/11:00pm 20.4 22.7 16.8 80 2.2 CALM 0 4 0 2 1019.1 1018.9 -
23/10:30pm 22.0 23.1 16.7 72 3.2 SE 6 7 3 4 1019.2 1019.0 -
23/10:00pm 22.2 23.1 16.7 71 3.4 ESE 7 13 4 7 1019.4 1019.2 -
23/09:30pm 21.9 23.3 16.4 71 3.3 SE 4 7 2 4 1019.2 1019.0 -
23/09:00pm 22.4 23.5 16.7 70 3.5 SE 6 7 3 4 1019.1 1018.9 0.0
23/08:30pm 23.0 24.2 16.8 68 3.8 ESE 6 9 3 5 1019.0 1018.8 -
23/08:00pm 23.6 24.6 16.4 64 4.4 E 6 11 3 6 1018.7 1018.5 -
23/07:30pm 24.0 25.6 16.0 61 4.9 ENE 2 6 1 3 1018.4 1018.2 -
23/07:00pm 25.0 25.7 16.2 58 5.4 E 7 13 4 7 1018.0 1017.8 -
23/06:30pm 26.1 26.4 16.1 54 6.1 E 9 15 5 8 1017.5 1017.3 -
23/06:00pm 27.3 26.8 16.0 50 6.9 E 13 24 7 13 1017.1 1016.9 -
23/05:30pm 28.1 28.0 17.0 51 7.0 NE 13 20 7 11 1016.7 1016.5 -
23/05:00pm 28.5 27.3 17.1 50 7.2 NE 19 32 10 17 1016.5 1016.3 -
23/04:30pm 29.4 28.9 16.9 47 7.9 NE 15 24 8 13 1016.2 1016.0 -
23/04:00pm 30.3 28.8 16.3 42 8.7 ENE 19 28 10 15 1016.0 1015.8 -
23/03:30pm 30.6 30.5 17.0 44 8.6 ENE 13 22 7 12 1016.2 1016.0 -
23/03:00pm 31.0 31.1 15.4 38 9.6 ENE 9 19 5 10 1016.3 1016.1 -
23/02:30pm 31.8 32.1 14.9 36 10.4 NNE 7 20 4 11 1016.5 1016.3 -
23/02:00pm 32.2 33.5 15.2 35 10.5 WSW 2 7 1 4 1016.7 1016.5 -
23/01:30pm 31.1 31.9 13.8 34 10.4 NW 2 6 1 3 1016.9 1016.7 -
23/01:00pm 31.4 31.7 14.5 35 10.3 ENE 6 11 3 6 1017.2 1017.0 -
23/10:30am 28.2 27.9 14.4 42 8.3 ENE 9 20 5 11 1019.2 1019.0 0.0
23/10:00am 28.1 28.5 15.4 46 7.8 SE 7 17 4 9 1019.4 1019.2 0.0
23/09:30am 27.1 26.8 14.5 46 7.6 SE 9 19 5 10 1019.7 1019.5 0.0
23/09:00am 26.8 26.7 13.9 45 7.7 E 7 15 4 8 1019.7 1019.5 0.0
23/08:30am 25.2 25.0 14.6 51 6.3 SSE 9 13 5 7 1019.7 1019.5 0.0
23/08:00am 23.9 25.7 16.4 63 4.6 WSW 2 4 1 2 1019.6 1019.4 0.0
23/07:30am 21.9 23.7 16.4 71 3.3 W 2 6 1 3 1019.6 1019.4 0.0
23/07:00am 20.2 22.0 16.4 79 2.3 WSW 2 6 1 3 1019.4 1019.2 0.0
23/06:30am 18.6 20.5 15.8 84 1.7 CALM 0 0 0 0 1019.1 1018.9 0.0
23/06:00am 17.8 19.7 15.8 88 1.2 CALM 0 0 0 0 1018.9 1018.7 0.0
23/05:30am 18.6 20.5 15.8 84 1.7 CALM 0 0 0 0 1018.5 1018.3 0.0
23/05:00am 19.1 21.2 16.3 84 1.7 CALM 0 2 0 1 1018.5 1018.3 0.0
23/04:30am 18.9 20.8 15.8 82 1.8 CALM 0 0 0 0 1018.3 1018.1 0.0
23/04:00am 20.0 22.0 16.0 78 2.4 CALM 0 0 0 0 1018.2 1018.0 0.0
23/03:30am 19.8 21.8 16.1 79 2.2 CALM 0 0 0 0 1018.3 1018.1 0.0
23/03:00am 19.6 21.0 16.3 81 2.0 ESE 4 7 2 4 1018.5 1018.3 0.0
23/02:30am 18.8 20.4 16.0 84 1.7 SSW 2 4 1 2 1018.5 1018.3 0.0
23/02:00am 19.5 21.4 15.8 79 2.2 CALM 0 0 0 0 1018.8 1018.6 0.0
23/01:30am 19.4 21.4 15.9 80 2.1 CALM 0 0 0 0 1018.9 1018.7 0.0
23/01:00am 19.7 21.7 16.0 79 2.2 CALM 0 0 0 0 1019.1 1018.9 0.0
23/12:30am 20.3 22.2 15.7 75 2.7 CALM 0 0 0 0 1019.3 1019.1 0.0
23/12:00am 20.2 22.2 16.0 77 2.5 CALM 0 0 0 0 1019.5 1019.3 0.0
 
Date/Time
EST
Temp
°C
App
Temp
°C
Dew
Point
°C
Rel
Hum
%
Delta-T
°C
Wind Press
QNH
hPa
Press
MSL
hPa
Rain since
9am
mm
Dir  Spd
km/h
Gust
km/h
Spd
kts
Gust
kts
22/11:30pm 19.7 21.4 16.2 80 2.1 SSE 2 4 1 2 1019.8 1019.6 0.0
22/11:00pm 18.7 20.0 15.2 80 2.0 S 2 4 1 2 1019.9 1019.7 0.0
22/10:30pm 19.4 20.4 15.3 77 2.4 S 4 4 2 2 1020.0 1019.8 0.0
22/10:00pm 20.2 21.8 15.0 72 3.1 CALM 0 2 0 1 1020.1 1019.9 0.0
22/09:30pm 22.0 23.1 15.6 67 3.8 SSE 4 9 2 5 1020.1 1019.9 0.0

Latest Capital City Observations: Canberra | Sydney | Melbourne | Brisbane | Adelaide | Perth | Hobart | Darwin

Other Formats:

Comma delimited format used in spreadsheet applications
http://www.bom.gov.au/fwo/IDQ60901/IDQ60901.95575.axf

JavaScript Object Notation format (JSON) in row-major order
http://www.bom.gov.au/fwo/IDQ60901/IDQ60901.95575.json